• Join FlightAware (Why Join?)
  • Login
  • US Flag 
03:10AM EDT


 

Airport Tracker/Info


-or-


 

Live Flight TrackerFlight Track Log ✈ EJA122 ✈ 11-Jun-2013 ✈ KAPC - KSJC

Flight Track Log - Related Links

Times and Time Zones

All times are in EDT time to prevent confusion due to time zone crossing. See the EJA122 flight status page for this flight to view local times or setup timezone preferences in your user account.

Time Position Orientation Groundspeed Altitude Reporting Facility
EDT Latitude Longitude Course Direction KTS MPH feet Rate Location/Type
02:45PM 38.1989 -122.2903 253° West 155 178 1,100  Level Oakland Center
02:46PM 38.1419 -122.3211 203° Southwest 221 254 4,200 1,860 Climbing Oakland Center
02:47PM 38.0864 -122.3619 210° Southwest 240 276 5,000 360 Climbing Oakland Center
02:48PM 38.0325 -122.4506 232° Southwest 266 306 5,000  Level Oakland Center
02:49PM 38.1069 -122.6958 253° West  Level FlightAware Approximate
02:49PM 37.9614 -122.4886 203° Southwest 279 321 5,000  Level Oakland Center
02:50PM 38.0866 -122.7823 253° West  Level FlightAware Approximate
02:50PM 37.8883 -122.5278 203° Southwest 275 316 5,000  Level Oakland Center
02:50PM 37.8667 -122.5333 191° South 272 313 5,100 60 Climbing Northern Cal TRACON
02:51PM 37.7833 -122.5167 171° South 271 312 5,100  Level Northern Cal TRACON
02:52PM 37.7167 -122.4833 158° South 271 312 5,100  Level Northern Cal TRACON
02:53PM 37.6333 -122.4667 171° South 271 312 5,100 -60 Level Northern Cal TRACON
02:54PM 37.5992 -122.4339 143° Southeast 273 314 5,000 -60 Descending Oakland Center
02:55PM 37.5336 -122.3861 150° Southeast 275 316 5,000  Level Oakland Center
02:56PM 37.4681 -122.3386 150° Southeast 273 314 5,000  Level Oakland Center
02:57PM 37.4042 -122.2919 150° Southeast 270 311 5,000  Level Oakland Center
02:58PM 37.3339 -122.2283 144° Southeast 265 305 5,000  Level Oakland Center
02:59PM 37.2933 -122.1489 123° Southeast 273 314 5,000  Level Oakland Center
03:00PM 37.2692 -122.0608 109° East 267 307 5,000 -180 Level Oakland Center
03:01PM 37.2508 -121.9683 104° East 271 312 4,700 -960 Descending Oakland Center
03:02PM 37.2481 -121.8814 92° East 270 311 3,100 -1,200 Descending Oakland Center
03:03PM 37.2969 -121.8594 20° North 227 261 2,300 -1,200 Descending Oakland Center
03:04PM 37.3272 -121.8925 319° Northwest 173 199 700 -1,140 Descending Oakland Center
03:05PM 37.3522 -121.9197 319° Northwest 140 161 100 -600 Descending Oakland Center
03:07PM 37.3500 -121.9167 North  Level FlightAware Approximate
03:14PM 37.3627 -121.9291 North  Level Estimated